Charlo, MT (59824)

9:41 AM MDT on September 05, 2015 (GMT -0600)
KC7MRQ Station #1 | | Change Station
CLOSE
Current Station
Personal Weather Station
Location: Ronan, MT
Elevation: 3070 ft
Nearby Weather Stations

Elev 3070 ft 47.53 °N, 114.09 °W | Updated 25 minutes ago

Rain
Rain
48.5 °F
Feels Like 48 °F
N
0.0
Wind Variable Wind from SE
Gusts 1.0 mph

Today
High -- | Low -- °F
--% Chance of Precip.
Yesterday
High -- | Low -- °F
Precip. -- in
7:00 AM 8:09 PM
Waning Gibbous, 47% visible
Pressure 29.87 in
Visibility 10.0 miles
Clouds Few 2700 ft
Mostly Cloudy 7000 ft
Mostly Cloudy 9500 ft
Windchill 48 °F
Dew Point 48 °F
Humidity 97%
Rainfall 0.10 in
Snow Depth Not available.
UV 1 out of 12
Pollen 1.50 out of 12
Air Quality Not available.
Flu Activity Not available.
METAR KMSO 051453Z 30005KT 10SM FEW027 BKN070 BKN095 10/09 A2988 RMK AO2 SLP115 60002 T01000089 53002
Pressure 29.87 in
Visibility 10.0 miles
Clouds Few 2700 ft
Mostly Cloudy 7000 ft
Mostly Cloudy 9500 ft
Windchill 48 °F
Dew Point 48 °F
Humidity 97%
Rainfall 0.10 in
Snow Depth Not available.
UV 1 out of 12
Pollen 1.50 out of 12
Air Quality Not available.
Flu Activity Not available.
METAR KMSO 051453Z 30005KT 10SM FEW027 BKN070 BKN095 10/09 A2988 RMK AO2 SLP115 60002 T01000089 53002

10-Day Weather Forecast

×

Almanac

Astronomy

Sep. 05, 2015 Rise Set
Actual Time
Civil Twilight
Nautical Twilight
Astronomical Twilight
Moon
Length of Visible Light
Length of Day
Tomorrow will be .
, % of the Moon is Illuminated

Today's Extremes

State Highs State Lows

Community

WunderPhotos

Upload Photos

1,852,483 photos uploaded!

WunderBlogs® & News

Nearby

Air Quality

  Air Quality AQ Index Pollutant
Not available.

Snow Depth

Station Depth Elevation

Earthquake Activity

City Distance Mag. Time & Date
Minimum magnitude displayed is 2.5.

Coastal Water Temperatures

Place Temperature

Stations

Nearby Weather Stations

Station Location Temp. Windchill Dew Point Humidity Wind Precip. Elev Updated Type